Waha Mermaid — V7UN8 — position and weather

sailwx.info

Track history (hours):
 
Tides and Currents Weather Stations Pressure Air Temp Water Temp Dewpoint Dewpoint Depression Visibility Wind Speed Wind Dir Waves Ship Positions

Waha Mermaid

Last reported at 2017-Oct-18 10:50 UTC. Time now 2017-Oct-23 08:23 UTC.
Position N 00°14' W 050°39'.

Length 50 m; draft 4.7 m.

Type: Tug. MMSI: 538003983.

Date/timePositionNaut miles runAvg speedWind from/ knotsBaromVisibWave heightAir tempDewpointWater temp
2017-Oct-18 10:50N 00°14' W 050°39'413.2
2017-Oct-18 10:30N 00°12' W 050°43'714.0
2017-Oct-18 10:00N 00°11' W 050°50'713.4
2017-Oct-18 09:30N 00°09' W 050°56'612.6
2017-Oct-18 09:00N 00°04' W 050°60'4 8.6
2017-Oct-18 08:30S 00°01' W 051°00'612.4
2017-Oct-18 08:00S 00°07' W 051°01'  
2017-Oct-09 18:58S 00°14' W 051°19'613.9
2017-Oct-09 18:30S 00°10' W 051°15'5 9.8
2017-Oct-09 18:01S 00°07' W 051°11'611.1
2017-Oct-09 17:30S 00°04' W 051°06'1 1.2
2017-Oct-09 17:00S 00°04' W 051°06'0 0.0
2017-Oct-09 16:30S 00°04' W 051°06'0 0.0
2017-Oct-09 16:00S 00°04' W 051°06'0 0.0
2017-Oct-09 15:30S 00°04' W 051°06'0 0.0
2017-Oct-09 15:00S 00°04' W 051°06'0 0.0
2017-Oct-09 14:30S 00°04' W 051°06'0 0.0
2017-Oct-09 14:00S 00°04' W 051°06'0 0.0
2017-Oct-09 13:30S 00°04' W 051°06'0 0.0
2017-Oct-09 13:00S 00°04' W 051°06'0 0.0
2017-Oct-09 12:30S 00°04' W 051°06'0 0.2
2017-Oct-09 12:00S 00°04' W 051°06'2 3.3
2017-Oct-09 11:30S 00°03' W 051°04'3 6.9
2017-Oct-09 11:00S 00°03' W 051°01'918.4
2017-Oct-09 10:30N 00°06' W 050°59'612.1
2017-Oct-09 10:00N 00°10' W 050°54'612.4
2017-Oct-09 09:30N 00°11' W 050°48'611.6
2017-Oct-09 09:00N 00°12' W 050°42'510.7
2017-Oct-09 08:30N 00°15' W 050°37'  
Track history (hours):
 
Tides and Currents Weather Stations Pressure Air Temp Water Temp Dewpoint Dewpoint Depression Visibility Wind Speed Wind Dir Waves Ship Positions

Waha Mermaid

Last reported at 2017-Oct-18 10:50 UTC. Time now 2017-Oct-23 08:23 UTC.
Position N 00°14' W 050°39'.

Length 50 m; draft 4.7 m.

Type: Tug. MMSI: 538003983.

Date/timePositionNaut miles runAvg speedWind from/ knotsBaromVisibWave heightAir tempDewpointWater temp
2017-Oct-18 10:50N 00°14' W 050°39'413.2
2017-Oct-18 10:30N 00°12' W 050°43'714.0
2017-Oct-18 10:00N 00°11' W 050°50'713.4
2017-Oct-18 09:30N 00°09' W 050°56'612.6
2017-Oct-18 09:00N 00°04' W 050°60'4 8.6
2017-Oct-18 08:30S 00°01' W 051°00'612.4
2017-Oct-18 08:00S 00°07' W 051°01'  
2017-Oct-09 18:58S 00°14' W 051°19'613.9
2017-Oct-09 18:30S 00°10' W 051°15'5 9.8
2017-Oct-09 18:01S 00°07' W 051°11'611.1
2017-Oct-09 17:30S 00°04' W 051°06'1 1.2
2017-Oct-09 17:00S 00°04' W 051°06'0 0.0
2017-Oct-09 16:30S 00°04' W 051°06'0 0.0
2017-Oct-09 16:00S 00°04' W 051°06'0 0.0
2017-Oct-09 15:30S 00°04' W 051°06'0 0.0
2017-Oct-09 15:00S 00°04' W 051°06'0 0.0
2017-Oct-09 14:30S 00°04' W 051°06'0 0.0
2017-Oct-09 14:00S 00°04' W 051°06'0 0.0
2017-Oct-09 13:30S 00°04' W 051°06'0 0.0
2017-Oct-09 13:00S 00°04' W 051°06'0 0.0
2017-Oct-09 12:30S 00°04' W 051°06'0 0.2
2017-Oct-09 12:00S 00°04' W 051°06'2 3.3
2017-Oct-09 11:30S 00°03' W 051°04'3 6.9
2017-Oct-09 11:00S 00°03' W 051°01'918.4
2017-Oct-09 10:30N 00°06' W 050°59'612.1
2017-Oct-09 10:00N 00°10' W 050°54'612.4
2017-Oct-09 09:30N 00°11' W 050°48'611.6
2017-Oct-09 09:00N 00°12' W 050°42'510.7
2017-Oct-09 08:30N 00°15' W 050°37'  

Dump ship's entire track history